createdAt,value
2022-12-08T00:02:32.192Z,11.73
2022-12-08T00:05:53.285Z,11.60
2022-12-08T00:09:14.031Z,12.18
2022-12-08T00:12:16.759Z,12.07
2022-12-08T00:15:18.972Z,13.20
2022-12-08T00:18:21.471Z,12.37
2022-12-08T00:21:23.671Z,12.35
2022-12-08T00:24:32.502Z,12.75
2022-12-08T00:27:34.662Z,12.45
2022-12-08T00:30:40.261Z,10.98
2022-12-08T00:33:42.435Z,12.77
2022-12-08T00:36:45.115Z,12.20
2022-12-08T00:39:47.286Z,12.50
2022-12-08T00:42:49.799Z,13.27
2022-12-08T00:45:52.084Z,12.25
2022-12-08T00:48:54.589Z,12.55
2022-12-08T00:51:56.990Z,11.93
2022-12-08T00:54:59.549Z,11.23
2022-12-08T00:58:01.701Z,12.02
2022-12-08T01:01:10.796Z,11.25
2022-12-08T01:04:15.975Z,11.60
2022-12-08T01:07:18.502Z,10.65
2022-12-08T01:10:22.050Z,10.98
2022-12-08T01:13:24.565Z,11.45
2022-12-08T01:16:29.252Z,11.12
2022-12-08T01:19:31.926Z,12.73
2022-12-08T01:22:35.323Z,12.07
2022-12-08T01:25:38.052Z,12.77
2022-12-08T01:28:40.912Z,12.75
2022-12-08T01:31:43.635Z,11.88
2022-12-08T01:34:45.754Z,11.70
2022-12-08T01:37:50.233Z,11.35
2022-12-08T01:40:52.392Z,11.02
2022-12-08T01:44:08.383Z,11.88
2022-12-08T01:47:12.062Z,10.90
2022-12-08T01:50:18.206Z,11.40
2022-12-08T01:53:26.647Z,11.63
2022-12-08T01:56:40.543Z,10.05
2022-12-08T01:59:48.601Z,10.85
2022-12-08T02:03:04.816Z,10.20
2022-12-08T02:06:08.209Z,10.45
2022-12-08T02:09:10.987Z,10.88
2022-12-08T02:12:13.779Z,10.48
2022-12-08T02:15:16.349Z,10.10
2022-12-08T02:18:40.858Z,9.90
2022-12-08T02:22:02.848Z,9.90
2022-12-08T02:25:17.608Z,9.90
2022-12-08T02:28:50.539Z,9.80
2022-12-08T02:32:02.537Z,9.70
2022-12-08T02:35:28.235Z,9.43
2022-12-08T02:38:47.798Z,10.32
2022-12-08T02:42:22.960Z,9.73
2022-12-08T02:45:33.878Z,8.40
2022-12-08T02:48:36.103Z,10.40
2022-12-08T02:51:38.598Z,9.70
2022-12-08T02:54:46.493Z,9.77
2022-12-08T02:57:55.463Z,9.35
2022-12-08T03:01:31.972Z,10.38
2022-12-08T03:04:46.990Z,9.48
2022-12-08T03:08:15.277Z,10.30
2022-12-08T03:11:24.458Z,9.68
2022-12-08T03:14:28.396Z,10.75
2022-12-08T03:17:32.009Z,10.05
2022-12-08T03:20:35.271Z,8.38
2022-12-08T03:23:39.410Z,9.88
2022-12-08T03:26:46.445Z,9.93
2022-12-08T03:29:53.297Z,9.05
2022-12-08T03:33:04.523Z,10.05
2022-12-08T03:36:09.368Z,11.18
2022-12-08T03:39:11.679Z,9.75
2022-12-08T03:42:14.171Z,10.38
2022-12-08T03:45:16.339Z,9.18
2022-12-08T03:48:18.797Z,9.85
2022-12-08T03:51:21.252Z,9.45
2022-12-08T03:54:24.390Z,9.48
2022-12-08T03:57:26.589Z,9.35
2022-12-08T04:00:29.152Z,8.95
2022-12-08T04:03:31.637Z,9.45
2022-12-08T04:06:33.841Z,9.70
2022-12-08T04:09:36.269Z,10.00
2022-12-08T04:12:38.435Z,10.20
2022-12-08T04:15:45.143Z,9.65
2022-12-08T04:18:47.389Z,10.88
2022-12-08T04:21:49.886Z,10.15
2022-12-08T04:24:52.044Z,10.90
2022-12-08T04:27:54.591Z,10.05
2022-12-08T04:30:56.842Z,11.35
2022-12-08T04:33:59.337Z,10.93
2022-12-08T04:37:01.472Z,9.90
2022-12-08T04:40:04.694Z,10.32
2022-12-08T04:43:07.070Z,10.20
2022-12-08T04:46:09.577Z,9.35
2022-12-08T04:49:11.898Z,10.48
2022-12-08T04:52:14.446Z,9.07
2022-12-08T04:55:17.777Z,9.60
2022-12-08T04:58:20.757Z,9.57
2022-12-08T05:01:22.996Z,9.07
2022-12-08T05:04:25.598Z,9.65
2022-12-08T05:07:27.981Z,7.65
2022-12-08T05:10:30.603Z,10.35
2022-12-08T05:13:33.034Z,10.05
2022-12-08T05:16:37.055Z,9.00
2022-12-08T05:19:39.272Z,9.15
2022-12-08T05:22:41.721Z,9.55
2022-12-08T05:25:43.825Z,10.32
2022-12-08T05:28:46.264Z,10.30
2022-12-08T05:31:48.517Z,10.20
2022-12-08T05:34:51.370Z,9.50
2022-12-08T05:37:53.997Z,9.45
2022-12-08T05:40:56.421Z,10.05
2022-12-08T05:43:58.665Z,10.18
2022-12-08T05:47:01.283Z,10.30
2022-12-08T05:50:04.243Z,11.27
2022-12-08T05:53:06.924Z,10.40
2022-12-08T05:56:09.020Z,10.77
2022-12-08T05:59:11.511Z,10.95
2022-12-08T06:02:13.958Z,10.40
2022-12-08T06:05:16.555Z,11.02
2022-12-08T06:08:18.817Z,11.82
2022-12-08T06:11:28.226Z,12.13
2022-12-08T06:14:30.393Z,12.90
2022-12-08T06:17:32.876Z,13.38
2022-12-08T06:20:35.349Z,12.48
2022-12-08T06:23:38.864Z,14.27
2022-12-08T06:26:41.504Z,11.38
2022-12-08T06:29:44.385Z,13.70
2022-12-08T06:32:46.522Z,12.65
2022-12-08T06:35:49.093Z,13.65
2022-12-08T06:38:51.734Z,13.32
2022-12-08T06:42:12.877Z,12.35
2022-12-08T06:45:17.394Z,14.45
2022-12-08T06:48:19.791Z,13.07
2022-12-08T06:51:23.522Z,14.68
2022-12-08T06:54:26.524Z,17.17
2022-12-08T06:57:28.845Z,14.57
2022-12-08T07:00:31.735Z,16.50
2022-12-08T07:03:35.967Z,17.25
2022-12-08T07:06:38.607Z,15.20
2022-12-08T07:09:40.818Z,16.33
2022-12-08T07:12:45.317Z,15.80
2022-12-08T07:15:47.532Z,16.58
2022-12-08T07:18:50.189Z,16.90
2022-12-08T07:21:52.312Z,17.80
2022-12-08T07:24:54.757Z,18.48
2022-12-08T07:27:56.960Z,17.77
2022-12-08T07:30:59.869Z,18.52
2022-12-08T07:34:02.160Z,17.83
2022-12-08T07:37:04.612Z,18.17
2022-12-08T07:40:09.378Z,21.25
2022-12-08T07:43:12.081Z,22.40
2022-12-08T07:46:16.501Z,23.98
2022-12-08T07:49:19.134Z,25.10
2022-12-08T07:52:21.303Z,25.10
2022-12-08T07:55:23.887Z,23.58
2022-12-08T07:58:26.321Z,24.48
2022-12-08T08:01:31.581Z,24.70
2022-12-08T08:04:34.069Z,23.48
2022-12-08T08:07:37.228Z,24.23
2022-12-08T08:10:39.728Z,24.67
2022-12-08T08:13:41.873Z,24.45
2022-12-08T08:16:46.838Z,22.58
2022-12-08T08:19:49.121Z,23.73
2022-12-08T08:22:52.453Z,23.27
2022-12-08T08:25:55.040Z,25.73
2022-12-08T08:28:59.073Z,23.92
2022-12-08T08:32:01.331Z,24.02
2022-12-08T08:35:04.869Z,27.02
2022-12-08T08:38:07.074Z,24.00
2022-12-08T08:41:10.899Z,22.15
2022-12-08T08:44:15.034Z,25.48
2022-12-08T08:47:17.539Z,23.80
2022-12-08T08:50:19.857Z,21.42
2022-12-08T08:53:23.130Z,22.13
2022-12-08T08:56:25.603Z,20.25
2022-12-08T08:59:28.549Z,19.60
2022-12-08T09:02:30.853Z,17.40
2022-12-08T09:05:33.332Z,18.25
2022-12-08T09:08:35.381Z,16.92
2022-12-08T09:11:38.193Z,15.95
2022-12-08T09:14:40.327Z,16.50
2022-12-08T09:17:42.715Z,17.45
2022-12-08T09:20:44.809Z,18.35
2022-12-08T09:23:47.172Z,16.55
2022-12-08T09:26:49.446Z,18.05
2022-12-08T09:29:51.845Z,18.48
2022-12-08T09:32:54.330Z,18.00
2022-12-08T09:35:56.870Z,18.05
2022-12-08T09:38:58.987Z,18.52
2022-12-08T09:42:04.789Z,19.27
2022-12-08T09:45:14.165Z,19.12
2022-12-08T09:48:19.995Z,19.48
2022-12-08T09:51:28.531Z,18.90
2022-12-08T09:54:35.972Z,17.40
2022-12-08T09:57:38.825Z,18.05
2022-12-08T10:00:41.298Z,19.75
2022-12-08T10:03:43.828Z,17.45
2022-12-08T10:07:04.648Z,16.85
2022-12-08T10:10:33.992Z,16.12
2022-12-08T10:14:07.182Z,15.93
2022-12-08T10:17:24.872Z,16.25
2022-12-08T10:20:35.978Z,15.15
2022-12-08T10:23:41.094Z,14.32
2022-12-08T10:26:43.455Z,14.20
2022-12-08T10:29:45.977Z,12.98
2022-12-08T10:32:49.947Z,12.77
2022-12-08T10:35:56.269Z,10.65
2022-12-08T10:38:58.596Z,11.55
2022-12-08T10:42:15.538Z,11.30
2022-12-08T10:45:28.068Z,12.77
2022-12-08T10:48:34.253Z,12.00
2022-12-08T10:51:41.884Z,12.90
2022-12-08T10:54:44.593Z,12.50
2022-12-08T10:57:50.716Z,12.73
2022-12-08T11:01:00.852Z,14.35
2022-12-08T11:04:06.326Z,13.85
2022-12-08T11:07:13.720Z,13.48
2022-12-08T11:10:18.960Z,13.60
2022-12-08T11:13:23.669Z,12.15
2022-12-08T11:16:25.992Z,10.63
2022-12-08T11:19:28.860Z,9.30
2022-12-08T11:22:39.741Z,10.65
2022-12-08T11:25:42.404Z,9.13
2022-12-08T11:28:44.747Z,10.85
2022-12-08T11:31:53.164Z,9.82
2022-12-08T11:35:02.537Z,11.13
2022-12-08T11:38:21.053Z,10.57
2022-12-08T11:41:36.674Z,11.43
2022-12-08T11:44:47.581Z,10.82
2022-12-08T11:48:06.133Z,12.07
2022-12-08T11:51:27.065Z,10.93
2022-12-08T11:54:58.232Z,10.82
2022-12-08T11:58:24.242Z,12.23
2022-12-08T12:01:26.960Z,11.40
2022-12-08T12:04:42.310Z,11.57
2022-12-08T12:07:59.643Z,11.20
2022-12-08T12:11:40.690Z,10.95
2022-12-08T12:15:07.447Z,10.77
2022-12-08T12:18:24.958Z,9.55
2022-12-08T12:21:36.242Z,10.45
2022-12-08T12:24:39.388Z,10.80
2022-12-08T12:27:41.882Z,12.50
2022-12-08T12:30:54.043Z,11.93
2022-12-08T12:34:06.547Z,10.70
2022-12-08T12:37:13.492Z,10.95
2022-12-08T12:40:20.906Z,11.60
2022-12-08T12:43:30.637Z,10.75
2022-12-08T12:46:54.491Z,11.80
2022-12-08T12:50:35.071Z,11.45
2022-12-08T12:53:37.137Z,11.75
2022-12-08T12:56:52.890Z,12.57
2022-12-08T12:59:56.189Z,11.57
2022-12-08T13:02:59.498Z,11.98
2022-12-08T13:06:02.759Z,12.43
2022-12-08T13:09:07.264Z,10.43
2022-12-08T13:12:23.022Z,12.18
2022-12-08T13:15:25.462Z,13.00
2022-12-08T13:18:41.860Z,12.48
2022-12-08T13:21:44.652Z,10.93
2022-12-08T13:24:46.885Z,11.70
2022-12-08T13:27:54.306Z,10.43
2022-12-08T13:31:00.894Z,11.63
2022-12-08T13:34:13.428Z,10.35
2022-12-08T13:37:52.373Z,9.88
2022-12-08T13:40:58.505Z,8.73
2022-12-08T13:45:03.706Z,10.00
2022-12-08T13:48:13.794Z,9.60
2022-12-08T13:53:22.295Z,10.48
2022-12-08T13:56:05.573Z,9.77
2022-12-08T13:58:03.675Z,10.77
2022-12-08T14:01:12.468Z,10.65
2022-12-08T14:04:42.621Z,10.60
2022-12-08T14:07:42.786Z,10.82
2022-12-08T14:10:47.511Z,10.30
2022-12-08T14:13:51.401Z,9.52
2022-12-08T14:16:57.582Z,9.48
2022-12-08T14:20:19.675Z,12.85
2022-12-08T14:23:22.121Z,14.93
2022-12-08T14:26:24.302Z,15.70
2022-12-08T14:29:45.472Z,14.93
2022-12-08T14:32:50.137Z,13.40
2022-12-08T14:35:55.918Z,11.43
2022-12-08T14:38:58.192Z,10.20
2022-12-08T14:42:00.998Z,10.75
2022-12-08T14:45:11.574Z,11.10
2022-12-08T14:48:25.875Z,10.98
2022-12-08T14:51:32.030Z,11.07
2022-12-08T14:54:34.686Z,10.32
2022-12-08T14:57:37.171Z,11.07
2022-12-08T15:00:46.322Z,11.93
2022-12-08T15:03:51.472Z,10.85
2022-12-08T15:07:02.799Z,12.05
2022-12-08T15:10:17.065Z,11.68
2022-12-08T15:13:20.994Z,10.50
2022-12-08T15:16:32.138Z,10.90
2022-12-08T15:19:34.657Z,12.32
2022-12-08T15:22:36.773Z,11.60
2022-12-08T15:25:39.260Z,10.85
2022-12-08T15:28:41.508Z,12.10
2022-12-08T15:31:44.071Z,12.60
2022-12-08T15:34:46.600Z,13.55
2022-12-08T15:37:49.103Z,13.02
2022-12-08T15:40:52.561Z,13.50
2022-12-08T15:43:54.993Z,11.50
2022-12-08T15:46:59.146Z,13.05
2022-12-08T15:50:04.593Z,11.15
2022-12-08T15:53:10.391Z,12.80
2022-12-08T15:56:29.349Z,12.70
2022-12-08T15:59:31.920Z,11.57
2022-12-08T16:02:49.467Z,12.88
2022-12-08T16:06:50.813Z,12.10
2022-12-08T16:09:34.542Z,12.40
2022-12-08T16:16:21.677Z,13.43
2022-12-08T16:19:24.313Z,13.38
2022-12-08T16:22:54.198Z,13.43
2022-12-08T16:26:20.381Z,13.30
2022-12-08T16:29:19.802Z,13.38
2022-12-08T16:32:23.684Z,12.37
2022-12-08T16:35:25.883Z,12.60
2022-12-08T16:38:28.501Z,12.23
2022-12-08T16:41:49.479Z,12.98
2022-12-08T16:44:51.978Z,10.70
2022-12-08T16:47:59.285Z,11.48
2022-12-08T16:51:04.480Z,11.55
2022-12-08T16:54:06.598Z,10.75
2022-12-08T16:57:09.210Z,9.82
2022-12-08T17:00:14.769Z,10.88
2022-12-08T17:03:17.624Z,9.98
2022-12-08T17:06:19.998Z,11.12
2022-12-08T17:09:22.463Z,9.95
2022-12-08T17:12:24.887Z,10.38
2022-12-08T17:15:27.355Z,10.00
2022-12-08T17:18:29.490Z,11.10
2022-12-08T17:21:32.546Z,12.15
2022-12-08T17:24:34.740Z,12.02
2022-12-08T17:27:38.010Z,11.65
2022-12-08T17:30:40.145Z,12.52
2022-12-08T17:33:42.960Z,12.68
2022-12-08T17:36:45.149Z,12.15
2022-12-08T17:39:47.604Z,12.05
2022-12-08T17:42:49.799Z,10.32
2022-12-08T17:45:52.294Z,10.48
2022-12-08T17:48:54.495Z,10.65
2022-12-08T17:52:03.276Z,11.18
2022-12-08T17:55:06.102Z,10.85
2022-12-08T17:58:08.556Z,10.80
2022-12-08T18:01:11.588Z,10.85
2022-12-08T18:04:14.122Z,11.07
2022-12-08T18:07:16.257Z,11.93
2022-12-08T18:10:19.486Z,10.65
2022-12-08T18:13:21.679Z,10.57
2022-12-08T18:16:26.821Z,9.88
2022-12-08T18:19:28.995Z,11.48
2022-12-08T18:22:31.372Z,10.82
2022-12-08T18:25:33.442Z,11.57
2022-12-08T18:28:36.217Z,11.27
2022-12-08T18:31:38.374Z,10.75
2022-12-08T18:34:41.575Z,12.40
2022-12-08T18:37:43.769Z,11.20
2022-12-08T18:40:46.230Z,11.15
2022-12-08T18:43:48.668Z,11.23
2022-12-08T18:46:51.314Z,10.90
2022-12-08T18:49:53.490Z,12.00
2022-12-08T18:52:55.944Z,11.80
2022-12-08T18:55:58.221Z,12.32
2022-12-08T18:59:04.458Z,12.80
2022-12-08T19:02:07.148Z,11.60
2022-12-08T19:05:12.505Z,11.85
2022-12-08T19:08:14.789Z,11.05
2022-12-08T19:11:22.350Z,11.32
2022-12-08T19:14:28.114Z,10.68
2022-12-08T19:17:31.273Z,11.38
2022-12-08T19:20:33.409Z,11.12
2022-12-08T19:23:36.261Z,10.85
2022-12-08T19:26:38.594Z,11.20
2022-12-08T19:29:41.017Z,11.48
2022-12-08T19:32:43.272Z,10.57
2022-12-08T19:35:52.209Z,10.80
2022-12-08T19:39:15.318Z,12.13
2022-12-08T19:42:38.248Z,11.40
2022-12-08T19:45:40.642Z,10.88
2022-12-08T19:48:43.552Z,11.55
2022-12-08T19:51:45.677Z,10.07
2022-12-08T19:54:48.156Z,10.20
2022-12-08T19:57:51.297Z,11.18
2022-12-08T20:00:53.809Z,11.12
2022-12-08T20:03:56.203Z,11.25
2022-12-08T20:06:58.415Z,11.27
2022-12-08T20:10:02.435Z,10.90
2022-12-08T20:13:24.756Z,11.63
2022-12-08T20:16:27.412Z,10.98
2022-12-08T20:19:29.655Z,11.18
2022-12-08T20:22:32.098Z,11.65
2022-12-08T20:25:34.771Z,11.50
2022-12-08T20:28:37.542Z,11.98
2022-12-08T20:31:39.757Z,12.37
2022-12-08T20:34:42.323Z,11.55
2022-12-08T20:37:44.495Z,12.35
2022-12-08T20:40:47.522Z,12.68
2022-12-08T20:43:50.079Z,13.32
2022-12-08T20:46:52.535Z,13.27
2022-12-08T20:49:54.815Z,13.27
2022-12-08T20:52:57.404Z,13.15
2022-12-08T20:55:59.847Z,14.00
2022-12-08T20:59:02.446Z,13.62
2022-12-08T21:02:04.868Z,13.43
2022-12-08T21:05:08.927Z,13.50
2022-12-08T21:08:11.255Z,14.13
2022-12-08T21:11:13.962Z,13.13
2022-12-08T21:14:16.200Z,15.18
2022-12-08T21:17:18.727Z,14.80
2022-12-08T21:20:23.727Z,14.80
2022-12-08T21:23:26.201Z,13.75
2022-12-08T21:26:28.836Z,13.62
2022-12-08T21:29:31.591Z,15.93
2022-12-08T21:32:34.503Z,16.42
2022-12-08T21:35:37.604Z,14.55
2022-12-08T21:38:40.552Z,16.12
2022-12-08T21:42:01.943Z,16.25
2022-12-08T21:45:04.275Z,16.58
2022-12-08T21:48:11.500Z,16.00
2022-12-08T21:51:14.236Z,15.77
2022-12-08T21:54:19.200Z,15.57
2022-12-08T21:57:21.879Z,15.82
2022-12-08T22:00:24.774Z,15.52
2022-12-08T22:03:28.110Z,17.55
2022-12-08T22:06:30.813Z,17.58
2022-12-08T22:09:33.429Z,17.87
2022-12-08T22:12:36.904Z,16.23
2022-12-08T22:15:39.629Z,17.90
2022-12-08T22:18:42.515Z,18.25
2022-12-08T22:21:45.083Z,16.92
2022-12-08T22:24:47.533Z,17.87
2022-12-08T22:27:50.142Z,17.75
2022-12-08T22:30:52.459Z,17.05
2022-12-08T22:33:55.015Z,17.35
2022-12-08T22:36:57.140Z,16.33
2022-12-08T22:39:59.796Z,16.75
2022-12-08T22:43:01.886Z,17.55
2022-12-08T22:46:12.160Z,17.00
2022-12-08T22:49:14.923Z,17.48
2022-12-08T22:52:17.380Z,19.08
2022-12-08T22:55:19.515Z,19.05
2022-12-08T22:58:22.277Z,17.95
2022-12-08T23:01:29.053Z,17.30
2022-12-08T23:04:32.054Z,19.15
2022-12-08T23:07:34.356Z,18.20
2022-12-08T23:10:36.812Z,18.15
2022-12-08T23:13:39.895Z,17.25
2022-12-08T23:16:42.650Z,19.37
2022-12-08T23:19:44.866Z,17.62
2022-12-08T23:22:47.393Z,18.17
2022-12-08T23:25:49.750Z,17.80
2022-12-08T23:28:52.766Z,17.83
2022-12-08T23:31:55.086Z,19.37
2022-12-08T23:34:57.889Z,19.08
2022-12-08T23:38:00.315Z,18.52
2022-12-08T23:41:05.590Z,19.95
2022-12-08T23:44:09.119Z,19.20
2022-12-08T23:47:11.910Z,18.90
2022-12-08T23:50:14.085Z,18.92
2022-12-08T23:53:17.009Z,19.55
2022-12-08T23:56:21.065Z,20.17
2022-12-08T23:59:24.770Z,21.50
